Portada
METAR-TAF:

METAR-TAF

Aeroports :

Bristol, Anglaterra

latitud: 51-23N, longitud: 002-43W, altitud: 189 m

Observació

L'informe es va fer fa 41 minuts, a les 20:50 UTC
Vent 9 kt del Est/Sud-Est
Temperatura 21°C
Humitat 53%
Pressió 1017 hPa
Visibilitat 10 km o més

METAR: EGGD 242050Z AUTO 11009KT 9999 NCD 21/11 Q1017

Hora: 22:31 (21:31 UTC)

Pronòstic

L'informe es va fer fa 4 hores i 36 minuts, a les 16:55 UTC
Pronòstic vàlid del 24 a les 18 UTC al 25 a les 18 UTC
Vent 5 kt del Est
Visibilitat 10 km o més
sense núvols per sota de 1500 mi sense presència de cumulonimbus.
Temporalment
l' 25 a les 01 UTC al 25 a les 09 UTC
Visibilitat: 8000 m
Probabilitat 30% :
Temporalment
l' 25 a les 05 UTC al 25 a les 08 UTC
Visibilitat: 3000 m
Cel ennuvolat a una alçada de 700 ft
boirina
Evolucionant progressivament
l' 25 a les 12 UTC al 25 a les 15 UTC
Vent 10 kt del Oest/Sud-Oest

TAF: EGGD 241655Z 2418/2518 10005KT CAVOK TEMPO 2501/2509 8000 PROB30 TEMPO 2505/2508 3000 BR BKN007 BECMG 2512/2515 25010KT

Observacions i pronòstics meteorològics de més de 4000 aeroports (METAR i TAF).

Les estacions disponibles són els punts grocs i vermells al mapa.

Posi el ratolí al punt desitjat per veure el nom de l'estació.

Feu clic per veure les observacions i els pronòstics meteorològics.

Per canviar el mapa: feu clic els botons verds amb una creu de color negre per apropar; al botó verd amb un guió per allunyar la imatge; o en les fletxes verdes per a mapes adjacents.


METAR-TAF: